sensor_id;sensor_type;location;lat;lon;timestamp;P1;durP1;ratioP1;P2;durP2;ratioP2
80421;SDS011;69763;50.182;9.144;2024-01-30T00:01:24;6.95;;;4.82;;
80421;SDS011;69763;50.182;9.144;2024-01-30T00:03:49;11.32;;;6.45;;
80421;SDS011;69763;50.182;9.144;2024-01-30T00:06:14;11.15;;;6.80;;
80421;SDS011;69763;50.182;9.144;2024-01-30T00:08:43;13.73;;;7.43;;
80421;SDS011;69763;50.182;9.144;2024-01-30T00:11:08;14.93;;;7.55;;
80421;SDS011;69763;50.182;9.144;2024-01-30T00:13:35;11.38;;;6.97;;
80421;SDS011;69763;50.182;9.144;2024-01-30T00:16:01;12.00;;;5.97;;
80421;SDS011;69763;50.182;9.144;2024-01-30T00:18:26;14.00;;;6.18;;
80421;SDS011;69763;50.182;9.144;2024-01-30T00:20:51;14.90;;;8.13;;
80421;SDS011;69763;50.182;9.144;2024-01-30T00:23:17;10.35;;;6.07;;
80421;SDS011;69763;50.182;9.144;2024-01-30T00:25:43;7.50;;;5.05;;
80421;SDS011;69763;50.182;9.144;2024-01-30T00:28:08;9.05;;;4.97;;
80421;SDS011;69763;50.182;9.144;2024-01-30T00:30:35;9.48;;;5.47;;
80421;SDS011;69763;50.182;9.144;2024-01-30T00:33:00;9.35;;;4.85;;
80421;SDS011;69763;50.182;9.144;2024-01-30T00:35:26;7.10;;;4.68;;
80421;SDS011;69763;50.182;9.144;2024-01-30T00:37:51;9.77;;;4.95;;
80421;SDS011;69763;50.182;9.144;2024-01-30T00:40:16;9.55;;;5.18;;
80421;SDS011;69763;50.182;9.144;2024-01-30T00:42:42;11.40;;;5.22;;
80421;SDS011;69763;50.182;9.144;2024-01-30T00:45:11;11.63;;;5.93;;
80421;SDS011;69763;50.182;9.144;2024-01-30T00:47:38;7.88;;;4.70;;
80421;SDS011;69763;50.182;9.144;2024-01-30T00:50:04;9.65;;;5.25;;
80421;SDS011;69763;50.182;9.144;2024-01-30T00:52:30;7.85;;;5.38;;
80421;SDS011;69763;50.182;9.144;2024-01-30T00:54:55;12.57;;;7.72;;
80421;SDS011;69763;50.182;9.144;2024-01-30T00:57:20;14.60;;;7.10;;
80421;SDS011;69763;50.182;9.144;2024-01-30T00:59:46;9.50;;;5.55;;
80421;SDS011;69763;50.182;9.144;2024-01-30T01:02:11;9.45;;;5.03;;
80421;SDS011;69763;50.182;9.144;2024-01-30T01:04:38;12.10;;;6.03;;
80421;SDS011;69763;50.182;9.144;2024-01-30T01:07:03;12.48;;;5.75;;
80421;SDS011;69763;50.182;9.144;2024-01-30T01:09:29;13.90;;;6.60;;
80421;SDS011;69763;50.182;9.144;2024-01-30T01:11:54;13.07;;;6.35;;
80421;SDS011;69763;50.182;9.144;2024-01-30T01:14:19;12.05;;;6.13;;
80421;SDS011;69763;50.182;9.144;2024-01-30T01:16:45;12.45;;;6.18;;
80421;SDS011;69763;50.182;9.144;2024-01-30T01:19:10;17.20;;;6.82;;
80421;SDS011;69763;50.182;9.144;2024-01-30T01:21:37;12.05;;;5.65;;
80421;SDS011;69763;50.182;9.144;2024-01-30T01:24:02;13.07;;;6.07;;
80421;SDS011;69763;50.182;9.144;2024-01-30T01:26:28;10.88;;;6.55;;
80421;SDS011;69763;50.182;9.144;2024-01-30T01:28:53;13.10;;;7.63;;
80421;SDS011;69763;50.182;9.144;2024-01-30T01:31:19;13.85;;;7.15;;
80421;SDS011;69763;50.182;9.144;2024-01-30T01:33:44;11.35;;;6.10;;
80421;SDS011;69763;50.182;9.144;2024-01-30T01:36:09;15.68;;;8.00;;
80421;SDS011;69763;50.182;9.144;2024-01-30T01:38:36;17.10;;;7.53;;
80421;SDS011;69763;50.182;9.144;2024-01-30T01:41:01;15.15;;;6.25;;
80421;SDS011;69763;50.182;9.144;2024-01-30T01:43:27;9.63;;;6.13;;
80421;SDS011;69763;50.182;9.144;2024-01-30T01:45:52;11.70;;;6.38;;
80421;SDS011;69763;50.182;9.144;2024-01-30T01:48:18;14.63;;;6.10;;
80421;SDS011;69763;50.182;9.144;2024-01-30T01:50:43;17.35;;;8.02;;
80421;SDS011;69763;50.182;9.144;2024-01-30T01:53:09;11.38;;;7.00;;
80421;SDS011;69763;50.182;9.144;2024-01-30T01:55:36;13.77;;;7.18;;
80421;SDS011;69763;50.182;9.144;2024-01-30T01:58:02;21.40;;;9.57;;
80421;SDS011;69763;50.182;9.144;2024-01-30T02:00:28;20.98;;;8.77;;
80421;SDS011;69763;50.182;9.144;2024-01-30T02:02:54;13.38;;;7.05;;
80421;SDS011;69763;50.182;9.144;2024-01-30T02:05:19;11.68;;;5.97;;
80421;SDS011;69763;50.182;9.144;2024-01-30T02:07:45;10.95;;;6.90;;
80421;SDS011;69763;50.182;9.144;2024-01-30T02:10:11;15.75;;;6.93;;
80421;SDS011;69763;50.182;9.144;2024-01-30T02:12:38;13.63;;;6.78;;
80421;SDS011;69763;50.182;9.144;2024-01-30T02:15:04;15.32;;;8.02;;
80421;SDS011;69763;50.182;9.144;2024-01-30T02:17:30;13.95;;;6.45;;
80421;SDS011;69763;50.182;9.144;2024-01-30T02:19:56;10.05;;;5.97;;
80421;SDS011;69763;50.182;9.144;2024-01-30T02:22:22;12.73;;;6.63;;
80421;SDS011;69763;50.182;9.144;2024-01-30T02:24:49;11.13;;;6.15;;
80421;SDS011;69763;50.182;9.144;2024-01-30T02:27:14;9.95;;;5.93;;
80421;SDS011;69763;50.182;9.144;2024-01-30T02:29:39;11.30;;;6.00;;
80421;SDS011;69763;50.182;9.144;2024-01-30T02:32:05;14.13;;;6.80;;
80421;SDS011;69763;50.182;9.144;2024-01-30T02:34:31;15.18;;;6.32;;
80421;SDS011;69763;50.182;9.144;2024-01-30T02:36:56;13.32;;;7.25;;
80421;SDS011;69763;50.182;9.144;2024-01-30T02:39:23;15.55;;;6.88;;
80421;SDS011;69763;50.182;9.144;2024-01-30T02:41:49;11.57;;;6.50;;
80421;SDS011;69763;50.182;9.144;2024-01-30T02:44:14;10.55;;;6.32;;
80421;SDS011;69763;50.182;9.144;2024-01-30T02:46:40;12.95;;;6.65;;
80421;SDS011;69763;50.182;9.144;2024-01-30T02:49:05;14.07;;;6.47;;
80421;SDS011;69763;50.182;9.144;2024-01-30T02:51:30;9.95;;;6.35;;
80421;SDS011;69763;50.182;9.144;2024-01-30T02:53:56;16.05;;;7.07;;
80421;SDS011;69763;50.182;9.144;2024-01-30T02:56:23;14.50;;;7.78;;
80421;SDS011;69763;50.182;9.144;2024-01-30T02:58:48;14.40;;;7.03;;
80421;SDS011;69763;50.182;9.144;2024-01-30T03:01:13;11.38;;;5.57;;
80421;SDS011;69763;50.182;9.144;2024-01-30T03:03:39;11.52;;;6.43;;
80421;SDS011;69763;50.182;9.144;2024-01-30T03:06:05;11.20;;;5.43;;
80421;SDS011;69763;50.182;9.144;2024-01-30T03:08:30;12.27;;;6.00;;
80421;SDS011;69763;50.182;9.144;2024-01-30T03:10:55;9.55;;;5.30;;
80421;SDS011;69763;50.182;9.144;2024-01-30T03:13:22;15.68;;;6.68;;
80421;SDS011;69763;50.182;9.144;2024-01-30T03:15:47;12.60;;;7.03;;
80421;SDS011;69763;50.182;9.144;2024-01-30T03:18:13;10.13;;;5.63;;
80421;SDS011;69763;50.182;9.144;2024-01-30T03:20:38;11.23;;;6.55;;
80421;SDS011;69763;50.182;9.144;2024-01-30T03:23:03;13.35;;;6.72;;
80421;SDS011;69763;50.182;9.144;2024-01-30T03:25:29;22.75;;;8.80;;
80421;SDS011;69763;50.182;9.144;2024-01-30T03:27:54;20.33;;;8.52;;
80421;SDS011;69763;50.182;9.144;2024-01-30T03:30:21;13.73;;;7.30;;
80421;SDS011;69763;50.182;9.144;2024-01-30T03:32:46;14.52;;;7.43;;
80421;SDS011;69763;50.182;9.144;2024-01-30T03:35:12;16.08;;;7.43;;
80421;SDS011;69763;50.182;9.144;2024-01-30T03:37:37;16.17;;;8.45;;
80421;SDS011;69763;50.182;9.144;2024-01-30T03:40:02;13.93;;;7.75;;
80421;SDS011;69763;50.182;9.144;2024-01-30T03:42:28;14.55;;;7.90;;
80421;SDS011;69763;50.182;9.144;2024-01-30T03:44:54;14.38;;;8.75;;
80421;SDS011;69763;50.182;9.144;2024-01-30T03:47:20;13.82;;;7.35;;
80421;SDS011;69763;50.182;9.144;2024-01-30T03:52:11;10.10;;;6.00;;
80421;SDS011;69763;50.182;9.144;2024-01-30T03:54:37;15.05;;;7.18;;
80421;SDS011;69763;50.182;9.144;2024-01-30T03:57:02;12.88;;;5.85;;
80421;SDS011;69763;50.182;9.144;2024-01-30T03:59:28;10.27;;;5.85;;
80421;SDS011;69763;50.182;9.144;2024-01-30T04:01:54;11.63;;;5.82;;
80421;SDS011;69763;50.182;9.144;2024-01-30T04:04:20;16.33;;;7.22;;
80421;SDS011;69763;50.182;9.144;2024-01-30T04:06:46;20.15;;;6.70;;
80421;SDS011;69763;50.182;9.144;2024-01-30T04:09:12;21.48;;;6.93;;
80421;SDS011;69763;50.182;9.144;2024-01-30T04:11:37;11.38;;;6.25;;
80421;SDS011;69763;50.182;9.144;2024-01-30T04:14:02;14.03;;;6.43;;
80421;SDS011;69763;50.182;9.144;2024-01-30T04:16:28;10.90;;;5.97;;
80421;SDS011;69763;50.182;9.144;2024-01-30T04:18:53;10.75;;;5.90;;
80421;SDS011;69763;50.182;9.144;2024-01-30T04:21:21;11.70;;;6.65;;
80421;SDS011;69763;50.182;9.144;2024-01-30T04:23:47;13.10;;;7.13;;
80421;SDS011;69763;50.182;9.144;2024-01-30T04:26:12;10.65;;;6.45;;
80421;SDS011;69763;50.182;9.144;2024-01-30T04:28:38;13.20;;;7.10;;
80421;SDS011;69763;50.182;9.144;2024-01-30T04:31:03;14.70;;;6.93;;
80421;SDS011;69763;50.182;9.144;2024-01-30T04:33:29;8.77;;;6.10;;
80421;SDS011;69763;50.182;9.144;2024-01-30T04:35:54;12.88;;;7.13;;
80421;SDS011;69763;50.182;9.144;2024-01-30T04:38:21;10.65;;;6.35;;
80421;SDS011;69763;50.182;9.144;2024-01-30T04:40:47;9.93;;;5.63;;
80421;SDS011;69763;50.182;9.144;2024-01-30T04:43:12;12.63;;;6.72;;
80421;SDS011;69763;50.182;9.144;2024-01-30T04:45:37;12.65;;;6.63;;
80421;SDS011;69763;50.182;9.144;2024-01-30T04:48:03;12.23;;;6.30;;
80421;SDS011;69763;50.182;9.144;2024-01-30T04:50:29;13.75;;;6.55;;
80421;SDS011;69763;50.182;9.144;2024-01-30T04:52:54;10.20;;;5.25;;
80421;SDS011;69763;50.182;9.144;2024-01-30T04:55:21;11.95;;;5.60;;
80421;SDS011;69763;50.182;9.144;2024-01-30T04:57:46;9.38;;;5.60;;
80421;SDS011;69763;50.182;9.144;2024-01-30T05:00:12;11.90;;;6.75;;
80421;SDS011;69763;50.182;9.144;2024-01-30T05:02:37;15.57;;;7.22;;
80421;SDS011;69763;50.182;9.144;2024-01-30T05:05:03;17.95;;;7.55;;
80421;SDS011;69763;50.182;9.144;2024-01-30T05:07:29;13.15;;;7.45;;
80421;SDS011;69763;50.182;9.144;2024-01-30T05:09:54;13.18;;;6.60;;
80421;SDS011;69763;50.182;9.144;2024-01-30T05:12:21;16.33;;;7.65;;
80421;SDS011;69763;50.182;9.144;2024-01-30T05:14:46;12.50;;;5.85;;
80421;SDS011;69763;50.182;9.144;2024-01-30T05:17:11;11.53;;;6.23;;
80421;SDS011;69763;50.182;9.144;2024-01-30T05:19:37;17.55;;;7.50;;
80421;SDS011;69763;50.182;9.144;2024-01-30T05:22:02;12.13;;;5.95;;
80421;SDS011;69763;50.182;9.144;2024-01-30T05:24:28;11.13;;;6.78;;
80421;SDS011;69763;50.182;9.144;2024-01-30T05:26:53;11.45;;;5.82;;
80421;SDS011;69763;50.182;9.144;2024-01-30T05:29:20;12.18;;;6.43;;
80421;SDS011;69763;50.182;9.144;2024-01-30T05:31:45;8.75;;;5.32;;
80421;SDS011;69763;50.182;9.144;2024-01-30T05:34:10;9.65;;;6.35;;
80421;SDS011;69763;50.182;9.144;2024-01-30T05:36:36;12.43;;;6.67;;
80421;SDS011;69763;50.182;9.144;2024-01-30T05:39:01;12.73;;;6.75;;
80421;SDS011;69763;50.182;9.144;2024-01-30T05:41:27;12.73;;;6.45;;
80421;SDS011;69763;50.182;9.144;2024-01-30T05:43:52;13.38;;;6.53;;
80421;SDS011;69763;50.182;9.144;2024-01-30T05:46:19;15.02;;;7.20;;
80421;SDS011;69763;50.182;9.144;2024-01-30T05:48:44;14.23;;;6.72;;
80421;SDS011;69763;50.182;9.144;2024-01-30T05:51:09;10.40;;;5.68;;
80421;SDS011;69763;50.182;9.144;2024-01-30T05:53:35;15.02;;;6.47;;
80421;SDS011;69763;50.182;9.144;2024-01-30T05:56:01;12.15;;;6.20;;
80421;SDS011;69763;50.182;9.144;2024-01-30T05:58:26;13.25;;;6.00;;
80421;SDS011;69763;50.182;9.144;2024-01-30T06:00:52;10.88;;;6.57;;
80421;SDS011;69763;50.182;9.144;2024-01-30T06:03:19;8.73;;;5.40;;
80421;SDS011;69763;50.182;9.144;2024-01-30T06:05:44;9.93;;;5.95;;
80421;SDS011;69763;50.182;9.144;2024-01-30T06:08:09;10.05;;;5.63;;
80421;SDS011;69763;50.182;9.144;2024-01-30T06:10:35;11.52;;;6.35;;
80421;SDS011;69763;50.182;9.144;2024-01-30T06:13:01;8.10;;;4.97;;
80421;SDS011;69763;50.182;9.144;2024-01-30T06:15:26;14.40;;;6.00;;
80421;SDS011;69763;50.182;9.144;2024-01-30T06:17:52;10.75;;;5.93;;
80421;SDS011;69763;50.182;9.144;2024-01-30T06:20:19;11.65;;;5.47;;
80421;SDS011;69763;50.182;9.144;2024-01-30T06:22:44;9.85;;;6.10;;
80421;SDS011;69763;50.182;9.144;2024-01-30T06:25:09;12.73;;;5.60;;
80421;SDS011;69763;50.182;9.144;2024-01-30T06:27:35;9.98;;;6.05;;
80421;SDS011;69763;50.182;9.144;2024-01-30T06:30:00;12.15;;;6.47;;
80421;SDS011;69763;50.182;9.144;2024-01-30T06:32:26;8.90;;;5.57;;
80421;SDS011;69763;50.182;9.144;2024-01-30T06:34:51;9.38;;;5.05;;
80421;SDS011;69763;50.182;9.144;2024-01-30T06:37:18;11.57;;;6.10;;
80421;SDS011;69763;50.182;9.144;2024-01-30T06:39:43;8.95;;;4.88;;
80421;SDS011;69763;50.182;9.144;2024-01-30T06:42:08;10.27;;;5.82;;
80421;SDS011;69763;50.182;9.144;2024-01-30T06:44:34;12.35;;;5.63;;
80421;SDS011;69763;50.182;9.144;2024-01-30T06:46:59;14.43;;;7.25;;
80421;SDS011;69763;50.182;9.144;2024-01-30T06:49:25;13.52;;;6.18;;
80421;SDS011;69763;50.182;9.144;2024-01-30T06:51:50;16.23;;;6.93;;
80421;SDS011;69763;50.182;9.144;2024-01-30T06:54:17;11.93;;;6.25;;
80421;SDS011;69763;50.182;9.144;2024-01-30T06:56:42;14.57;;;6.43;;
80421;SDS011;69763;50.182;9.144;2024-01-30T06:59:07;9.25;;;6.05;;
80421;SDS011;69763;50.182;9.144;2024-01-30T07:01:33;13.77;;;6.68;;
80421;SDS011;69763;50.182;9.144;2024-01-30T07:03:58;13.13;;;7.80;;
80421;SDS011;69763;50.182;9.144;2024-01-30T07:06:23;15.73;;;7.43;;
80421;SDS011;69763;50.182;9.144;2024-01-30T07:08:49;16.35;;;7.80;;
80421;SDS011;69763;50.182;9.144;2024-01-30T07:11:19;16.83;;;7.25;;
80421;SDS011;69763;50.182;9.144;2024-01-30T07:13:44;10.40;;;6.63;;
80421;SDS011;69763;50.182;9.144;2024-01-30T07:16:10;11.48;;;6.75;;
80421;SDS011;69763;50.182;9.144;2024-01-30T07:18:35;11.70;;;6.63;;
80421;SDS011;69763;50.182;9.144;2024-01-30T07:21:01;11.85;;;7.75;;
80421;SDS011;69763;50.182;9.144;2024-01-30T07:23:26;16.00;;;7.93;;
80421;SDS011;69763;50.182;9.144;2024-01-30T07:25:51;13.07;;;7.72;;
80421;SDS011;69763;50.182;9.144;2024-01-30T07:28:18;13.07;;;7.95;;
80421;SDS011;69763;50.182;9.144;2024-01-30T07:30:44;15.13;;;9.10;;
80421;SDS011;69763;50.182;9.144;2024-01-30T07:33:09;16.42;;;8.02;;
80421;SDS011;69763;50.182;9.144;2024-01-30T07:35:34;15.35;;;7.38;;
80421;SDS011;69763;50.182;9.144;2024-01-30T07:38:00;19.50;;;9.82;;
80421;SDS011;69763;50.182;9.144;2024-01-30T07:40:25;14.38;;;8.30;;
80421;SDS011;69763;50.182;9.144;2024-01-30T07:42:52;11.95;;;7.63;;
80421;SDS011;69763;50.182;9.144;2024-01-30T07:45:20;17.33;;;8.32;;
80421;SDS011;69763;50.182;9.144;2024-01-30T07:47:45;18.58;;;8.13;;
80421;SDS011;69763;50.182;9.144;2024-01-30T07:50:10;16.05;;;8.82;;
80421;SDS011;69763;50.182;9.144;2024-01-30T07:52:36;20.00;;;10.27;;
80421;SDS011;69763;50.182;9.144;2024-01-30T07:55:01;20.92;;;10.02;;
80421;SDS011;69763;50.182;9.144;2024-01-30T07:57:27;23.75;;;10.75;;
80421;SDS011;69763;50.182;9.144;2024-01-30T07:59:52;21.90;;;10.95;;
80421;SDS011;69763;50.182;9.144;2024-01-30T08:02:19;24.83;;;10.27;;
80421;SDS011;69763;50.182;9.144;2024-01-30T08:04:44;20.75;;;10.80;;
80421;SDS011;69763;50.182;9.144;2024-01-30T08:07:09;18.10;;;10.20;;
80421;SDS011;69763;50.182;9.144;2024-01-30T08:09:35;17.87;;;8.60;;
80421;SDS011;69763;50.182;9.144;2024-01-30T08:12:00;19.17;;;8.52;;
80421;SDS011;69763;50.182;9.144;2024-01-30T08:14:25;14.30;;;7.97;;
80421;SDS011;69763;50.182;9.144;2024-01-30T08:16:51;14.30;;;8.15;;
80421;SDS011;69763;50.182;9.144;2024-01-30T08:19:17;19.75;;;7.50;;
80421;SDS011;69763;50.182;9.144;2024-01-30T08:21:44;18.98;;;9.32;;
80421;SDS011;69763;50.182;9.144;2024-01-30T08:24:09;17.27;;;9.38;;
80421;SDS011;69763;50.182;9.144;2024-01-30T08:26:34;16.35;;;9.13;;
80421;SDS011;69763;50.182;9.144;2024-01-30T08:29:00;17.08;;;8.23;;
80421;SDS011;69763;50.182;9.144;2024-01-30T08:31:26;20.05;;;10.63;;
80421;SDS011;69763;50.182;9.144;2024-01-30T08:33:51;24.95;;;11.68;;
80421;SDS011;69763;50.182;9.144;2024-01-30T08:36:19;31.33;;;14.05;;
80421;SDS011;69763;50.182;9.144;2024-01-30T08:38:45;31.02;;;13.80;;
80421;SDS011;69763;50.182;9.144;2024-01-30T08:41:10;33.70;;;15.48;;
80421;SDS011;69763;50.182;9.144;2024-01-30T08:43:35;35.78;;;14.98;;
80421;SDS011;69763;50.182;9.144;2024-01-30T08:46:01;37.65;;;15.27;;
80421;SDS011;69763;50.182;9.144;2024-01-30T08:48:26;31.33;;;14.77;;
80421;SDS011;69763;50.182;9.144;2024-01-30T08:50:52;25.02;;;13.18;;
80421;SDS011;69763;50.182;9.144;2024-01-30T08:53:19;25.80;;;13.20;;
80421;SDS011;69763;50.182;9.144;2024-01-30T08:55:44;28.45;;;12.15;;
80421;SDS011;69763;50.182;9.144;2024-01-30T08:58:09;20.73;;;11.18;;
80421;SDS011;69763;50.182;9.144;2024-01-30T09:00:35;21.17;;;11.18;;
80421;SDS011;69763;50.182;9.144;2024-01-30T09:03:00;20.10;;;10.88;;
80421;SDS011;69763;50.182;9.144;2024-01-30T09:05:25;16.58;;;9.73;;
80421;SDS011;69763;50.182;9.144;2024-01-30T09:07:51;17.17;;;9.80;;
80421;SDS011;69763;50.182;9.144;2024-01-30T09:10:17;18.20;;;9.55;;
80421;SDS011;69763;50.182;9.144;2024-01-30T09:12:43;14.63;;;8.35;;
80421;SDS011;69763;50.182;9.144;2024-01-30T09:15:09;14.70;;;8.88;;
80421;SDS011;69763;50.182;9.144;2024-01-30T09:17:34;17.17;;;8.43;;
80421;SDS011;69763;50.182;9.144;2024-01-30T09:20:00;16.13;;;8.45;;
80421;SDS011;69763;50.182;9.144;2024-01-30T09:22:25;17.40;;;9.38;;
80421;SDS011;69763;50.182;9.144;2024-01-30T09:24:51;17.63;;;8.40;;
80421;SDS011;69763;50.182;9.144;2024-01-30T09:27:17;17.33;;;9.10;;
80421;SDS011;69763;50.182;9.144;2024-01-30T09:29:43;17.83;;;9.73;;
80421;SDS011;69763;50.182;9.144;2024-01-30T09:32:08;16.90;;;8.77;;
80421;SDS011;69763;50.182;9.144;2024-01-30T09:34:33;13.88;;;8.25;;
80421;SDS011;69763;50.182;9.144;2024-01-30T09:36:59;15.13;;;8.30;;
80421;SDS011;69763;50.182;9.144;2024-01-30T09:39:24;11.95;;;7.63;;
80421;SDS011;69763;50.182;9.144;2024-01-30T09:41:52;13.93;;;7.95;;
80421;SDS011;69763;50.182;9.144;2024-01-30T09:44:27;13.43;;;7.60;;
80421;SDS011;69763;50.182;9.144;2024-01-30T09:46:54;13.75;;;8.05;;
80421;SDS011;69763;50.182;9.144;2024-01-30T09:49:20;17.95;;;9.32;;
80421;SDS011;69763;50.182;9.144;2024-01-30T09:51:47;14.70;;;9.00;;
80421;SDS011;69763;50.182;9.144;2024-01-30T09:54:13;17.95;;;10.13;;
80421;SDS011;69763;50.182;9.144;2024-01-30T09:56:39;18.80;;;8.98;;
80421;SDS011;69763;50.182;9.144;2024-01-30T09:59:04;19.38;;;8.75;;
80421;SDS011;69763;50.182;9.144;2024-01-30T10:01:31;11.50;;;7.35;;
80421;SDS011;69763;50.182;9.144;2024-01-30T10:03:58;11.77;;;7.57;;
80421;SDS011;69763;50.182;9.144;2024-01-30T10:06:24;13.30;;;7.38;;
80421;SDS011;69763;50.182;9.144;2024-01-30T10:08:50;15.82;;;7.78;;
80421;SDS011;69763;50.182;9.144;2024-01-30T10:11:15;13.63;;;7.43;;
80421;SDS011;69763;50.182;9.144;2024-01-30T10:13:41;12.18;;;6.72;;
80421;SDS011;69763;50.182;9.144;2024-01-30T10:16:06;17.25;;;8.88;;
80421;SDS011;69763;50.182;9.144;2024-01-30T10:18:33;13.05;;;8.05;;
80421;SDS011;69763;50.182;9.144;2024-01-30T10:20:58;12.13;;;8.30;;
80421;SDS011;69763;50.182;9.144;2024-01-30T10:23:24;12.05;;;7.60;;
80421;SDS011;69763;50.182;9.144;2024-01-30T10:25:50;14.45;;;7.72;;
80421;SDS011;69763;50.182;9.144;2024-01-30T10:28:16;14.30;;;7.47;;
80421;SDS011;69763;50.182;9.144;2024-01-30T10:30:42;14.68;;;8.15;;
80421;SDS011;69763;50.182;9.144;2024-01-30T10:33:07;13.20;;;7.78;;
80421;SDS011;69763;50.182;9.144;2024-01-30T10:35:34;16.75;;;9.02;;
80421;SDS011;69763;50.182;9.144;2024-01-30T10:37:59;12.63;;;7.88;;
80421;SDS011;69763;50.182;9.144;2024-01-30T10:40:26;16.50;;;8.35;;
80421;SDS011;69763;50.182;9.144;2024-01-30T10:42:53;18.13;;;8.88;;
80421;SDS011;69763;50.182;9.144;2024-01-30T10:45:20;16.48;;;8.10;;
80421;SDS011;69763;50.182;9.144;2024-01-30T10:50:13;21.08;;;8.77;;
80421;SDS011;69763;50.182;9.144;2024-01-30T10:52:41;20.00;;;10.27;;
80421;SDS011;69763;50.182;9.144;2024-01-30T10:55:07;19.98;;;9.07;;
80421;SDS011;69763;50.182;9.144;2024-01-30T10:57:33;20.15;;;9.38;;
80421;SDS011;69763;50.182;9.144;2024-01-30T11:00:00;26.17;;;9.70;;
80421;SDS011;69763;50.182;9.144;2024-01-30T11:02:27;21.83;;;8.73;;
80421;SDS011;69763;50.182;9.144;2024-01-30T11:04:55;21.17;;;9.65;;
80421;SDS011;69763;50.182;9.144;2024-01-30T11:07:24;20.70;;;9.07;;
80421;SDS011;69763;50.182;9.144;2024-01-30T11:09:51;18.98;;;8.77;;
80421;SDS011;69763;50.182;9.144;2024-01-30T11:12:21;18.17;;;8.32;;
80421;SDS011;69763;50.182;9.144;2024-01-30T11:14:47;20.38;;;8.57;;
80421;SDS011;69763;50.182;9.144;2024-01-30T11:17:12;18.30;;;8.98;;
80421;SDS011;69763;50.182;9.144;2024-01-30T11:19:38;19.02;;;8.57;;
80421;SDS011;69763;50.182;9.144;2024-01-30T11:22:03;20.45;;;8.85;;
80421;SDS011;69763;50.182;9.144;2024-01-30T11:24:36;18.25;;;7.93;;
80421;SDS011;69763;50.182;9.144;2024-01-30T11:27:07;17.77;;;8.45;;
80421;SDS011;69763;50.182;9.144;2024-01-30T11:29:33;16.38;;;8.80;;
80421;SDS011;69763;50.182;9.144;2024-01-30T11:32:00;15.30;;;7.40;;
80421;SDS011;69763;50.182;9.144;2024-01-30T11:34:25;17.10;;;8.55;;
80421;SDS011;69763;50.182;9.144;2024-01-30T11:36:51;18.23;;;8.45;;
80421;SDS011;69763;50.182;9.144;2024-01-30T11:39:18;16.60;;;8.18;;
80421;SDS011;69763;50.182;9.144;2024-01-30T11:41:45;12.23;;;7.70;;
80421;SDS011;69763;50.182;9.144;2024-01-30T11:44:12;15.55;;;8.00;;
80421;SDS011;69763;50.182;9.144;2024-01-30T11:49:02;14.33;;;6.90;;
80421;SDS011;69763;50.182;9.144;2024-01-30T11:51:29;13.40;;;8.23;;
80421;SDS011;69763;50.182;9.144;2024-01-30T11:53:55;12.10;;;7.70;;
80421;SDS011;69763;50.182;9.144;2024-01-30T11:56:23;14.32;;;7.65;;
80421;SDS011;69763;50.182;9.144;2024-01-30T12:01:16;12.93;;;7.65;;
80421;SDS011;69763;50.182;9.144;2024-01-30T12:03:42;14.40;;;8.00;;
80421;SDS011;69763;50.182;9.144;2024-01-30T12:06:07;14.65;;;8.23;;
80421;SDS011;69763;50.182;9.144;2024-01-30T12:08:33;15.27;;;8.18;;
80421;SDS011;69763;50.182;9.144;2024-01-30T12:10:58;15.80;;;7.82;;
80421;SDS011;69763;50.182;9.144;2024-01-30T12:13:24;11.90;;;6.70;;
80421;SDS011;69763;50.182;9.144;2024-01-30T12:15:50;13.38;;;6.85;;
80421;SDS011;69763;50.182;9.144;2024-01-30T12:18:19;13.60;;;7.50;;
80421;SDS011;69763;50.182;9.144;2024-01-30T12:20:44;13.75;;;9.15;;
80421;SDS011;69763;50.182;9.144;2024-01-30T12:23:11;13.10;;;8.50;;
80421;SDS011;69763;50.182;9.144;2024-01-30T12:25:37;13.18;;;8.38;;
80421;SDS011;69763;50.182;9.144;2024-01-30T12:28:02;12.90;;;7.60;;
80421;SDS011;69763;50.182;9.144;2024-01-30T12:30:28;17.13;;;8.90;;
80421;SDS011;69763;50.182;9.144;2024-01-30T12:32:54;13.30;;;8.25;;
80421;SDS011;69763;50.182;9.144;2024-01-30T12:35:21;14.80;;;7.53;;
80421;SDS011;69763;50.182;9.144;2024-01-30T12:37:47;12.55;;;8.05;;
80421;SDS011;69763;50.182;9.144;2024-01-30T12:40:14;16.55;;;9.18;;
80421;SDS011;69763;50.182;9.144;2024-01-30T12:42:40;11.82;;;7.75;;
80421;SDS011;69763;50.182;9.144;2024-01-30T12:45:05;15.98;;;8.98;;
80421;SDS011;69763;50.182;9.144;2024-01-30T12:47:31;13.85;;;8.60;;
80421;SDS011;69763;50.182;9.144;2024-01-30T12:49:57;15.75;;;7.78;;
80421;SDS011;69763;50.182;9.144;2024-01-30T12:52:24;12.13;;;7.57;;
80421;SDS011;69763;50.182;9.144;2024-01-30T12:54:49;14.60;;;8.07;;
80421;SDS011;69763;50.182;9.144;2024-01-30T12:57:15;21.15;;;9.77;;
80421;SDS011;69763;50.182;9.144;2024-01-30T12:59:41;13.02;;;8.35;;
80421;SDS011;69763;50.182;9.144;2024-01-30T13:02:07;17.17;;;8.02;;
80421;SDS011;69763;50.182;9.144;2024-01-30T13:04:32;19.05;;;9.35;;
80421;SDS011;69763;50.182;9.144;2024-01-30T13:06:58;14.65;;;7.93;;
80421;SDS011;69763;50.182;9.144;2024-01-30T13:09:25;15.85;;;8.68;;
80421;SDS011;69763;50.182;9.144;2024-01-30T13:11:50;16.17;;;8.50;;
80421;SDS011;69763;50.182;9.144;2024-01-30T13:14:16;13.00;;;8.23;;
80421;SDS011;69763;50.182;9.144;2024-01-30T13:16:41;16.08;;;8.98;;
80421;SDS011;69763;50.182;9.144;2024-01-30T13:19:07;12.75;;;8.85;;
80421;SDS011;69763;50.182;9.144;2024-01-30T13:21:32;14.63;;;9.65;;
80421;SDS011;69763;50.182;9.144;2024-01-30T13:23:57;16.52;;;9.40;;
80421;SDS011;69763;50.182;9.144;2024-01-30T13:26:24;14.63;;;9.07;;
80421;SDS011;69763;50.182;9.144;2024-01-30T13:28:49;19.90;;;8.57;;
80421;SDS011;69763;50.182;9.144;2024-01-30T13:31:15;16.30;;;9.55;;
80421;SDS011;69763;50.182;9.144;2024-01-30T13:33:41;16.75;;;9.55;;
80421;SDS011;69763;50.182;9.144;2024-01-30T13:36:06;15.75;;;8.88;;
80421;SDS011;69763;50.182;9.144;2024-01-30T13:38:32;16.85;;;9.00;;
80421;SDS011;69763;50.182;9.144;2024-01-30T13:40:57;16.13;;;8.60;;
80421;SDS011;69763;50.182;9.144;2024-01-30T13:43:24;10.93;;;8.00;;
80421;SDS011;69763;50.182;9.144;2024-01-30T13:45:49;16.73;;;8.88;;
80421;SDS011;69763;50.182;9.144;2024-01-30T13:48:15;17.45;;;7.28;;
80421;SDS011;69763;50.182;9.144;2024-01-30T13:50:40;12.70;;;7.63;;
80421;SDS011;69763;50.182;9.144;2024-01-30T13:53:05;13.00;;;7.53;;
80421;SDS011;69763;50.182;9.144;2024-01-30T13:55:31;11.82;;;7.32;;
80421;SDS011;69763;50.182;9.144;2024-01-30T13:57:56;15.57;;;9.32;;
80421;SDS011;69763;50.182;9.144;2024-01-30T14:00:23;15.90;;;8.68;;
80421;SDS011;69763;50.182;9.144;2024-01-30T14:02:48;13.55;;;7.65;;
80421;SDS011;69763;50.182;9.144;2024-01-30T14:05:14;16.10;;;8.25;;
80421;SDS011;69763;50.182;9.144;2024-01-30T14:07:39;12.05;;;7.47;;
80421;SDS011;69763;50.182;9.144;2024-01-30T14:10:05;13.65;;;7.78;;
80421;SDS011;69763;50.182;9.144;2024-01-30T14:12:31;16.52;;;8.30;;
80421;SDS011;69763;50.182;9.144;2024-01-30T14:14:56;12.32;;;7.05;;
80421;SDS011;69763;50.182;9.144;2024-01-30T14:17:23;14.68;;;6.78;;
80421;SDS011;69763;50.182;9.144;2024-01-30T14:19:48;12.30;;;6.82;;
80421;SDS011;69763;50.182;9.144;2024-01-30T14:22:14;14.88;;;8.00;;
80421;SDS011;69763;50.182;9.144;2024-01-30T14:24:39;12.75;;;8.05;;
80421;SDS011;69763;50.182;9.144;2024-01-30T14:27:05;15.00;;;7.68;;
80421;SDS011;69763;50.182;9.144;2024-01-30T14:29:30;16.30;;;7.80;;
80421;SDS011;69763;50.182;9.144;2024-01-30T14:31:55;14.27;;;8.95;;
80421;SDS011;69763;50.182;9.144;2024-01-30T14:34:22;14.82;;;8.20;;
80421;SDS011;69763;50.182;9.144;2024-01-30T14:36:47;13.55;;;7.47;;